Time;durP1;ratioP1;P1;durP2;ratioP2;P2;SDS_P1;SDS_P2;PMS_P1;PMS_P2;Temp;Humidity;BMP_temperature;BMP_pressure;BME280_temperature;BME280_humidity;BME280_pressure;Samples;Min_cycle;Max_cycle;Signal;HPM_P1;HPM_P2
2023/05/31 00:02:21;;;;;;;0.40;0.40;;;;;;;;;;5071547;28;20276;-86
2023/05/31 00:04:47;;;;;;;0.40;0.40;;;;;;;;;;5071411;28;20210;-86
2023/05/31 00:07:12;;;;;;;0.40;0.40;;;;;;;;;;5073322;28;20236;-86
2023/05/31 00:09:38;;;;;;;0.40;0.40;;;;;;;;;;5072751;28;20695;-85
2023/05/31 00:12:05;;;;;;;0.50;0.50;;;;;;;;;;5073033;28;20240;-86
2023/05/31 00:14:31;;;;;;;0.40;0.40;;;;;;;;;;5073643;28;20170;-86
2023/05/31 00:16:57;;;;;;;0.30;0.30;;;;;;;;;;5073344;28;20552;-86
2023/05/31 00:19:23;;;;;;;0.40;0.40;;;;;;;;;;5075506;28;20182;-86
2023/05/31 00:21:49;;;;;;;0.50;0.50;;;;;;;;;;5077161;28;20490;-86
2023/05/31 00:24:16;;;;;;;0.40;0.40;;;;;;;;;;5077044;28;20182;-86
2023/05/31 00:26:42;;;;;;;0.40;0.40;;;;;;;;;;5075041;28;20535;-86
2023/05/31 00:29:08;;;;;;;0.50;0.50;;;;;;;;;;5077221;28;20174;-86
2023/05/31 00:31:34;;;;;;;0.40;0.40;;;;;;;;;;5074717;28;20625;-86
2023/05/31 00:34:00;;;;;;;0.30;0.30;;;;;;;;;;5074363;28;20179;-85
2023/05/31 00:36:26;;;;;;;0.30;0.30;;;;;;;;;;5074106;28;20207;-86
2023/05/31 00:38:52;;;;;;;0.50;0.50;;;;;;;;;;5073961;28;20875;-86
2023/05/31 00:41:18;;;;;;;0.50;0.50;;;;;;;;;;5074034;28;20190;-86
2023/05/31 00:43:44;;;;;;;0.40;0.40;;;;;;;;;;5073387;28;20211;-87
2023/05/31 00:46:11;;;;;;;0.40;0.40;;;;;;;;;;5074964;28;20602;-86
2023/05/31 00:48:42;;;;;;;0.50;0.50;;;;;;;;;;5074081;28;20242;-85
2023/05/31 00:51:08;;;;;;;0.50;0.50;;;;;;;;;;5073731;28;20202;-85
2023/05/31 00:53:34;;;;;;;0.40;0.40;;;;;;;;;;5075458;28;20193;-88
2023/05/31 00:56:01;;;;;;;0.40;0.40;;;;;;;;;;5074391;28;20608;-85
2023/05/31 00:58:27;;;;;;;0.50;0.50;;;;;;;;;;5056080;28;20174;-86
2023/05/31 01:00:53;;;;;;;0.40;0.40;;;;;;;;;;5074362;28;20202;-87
2023/05/31 01:03:20;;;;;;;0.50;0.50;;;;;;;;;;5076690;28;20183;-86
2023/05/31 01:05:46;;;;;;;0.50;0.50;;;;;;;;;;5078475;28;20183;-86
2023/05/31 01:08:14;;;;;;;0.40;0.40;;;;;;;;;;5077278;28;20186;-85
2023/05/31 01:10:40;;;;;;;0.50;0.50;;;;;;;;;;5078145;28;20263;-87
2023/05/31 01:13:12;;;;;;;0.53;0.53;;;;;;;;;;5078388;28;20637;-86
2023/05/31 01:15:44;;;;;;;0.57;0.57;;;;;;;;;;5078160;28;20841;-86
2023/05/31 01:18:18;;;;;;;0.40;0.40;;;;;;;;;;5079603;28;20202;-85
2023/05/31 01:20:49;;;;;;;0.40;0.40;;;;;;;;;;5078972;28;20666;-86
2023/05/31 01:23:34;;;;;;;0.50;0.50;;;;;;;;;;5079973;28;20170;-85
2023/05/31 01:26:04;;;;;;;0.40;0.40;;;;;;;;;;5079796;28;20189;-86
2023/05/31 01:28:31;;;;;;;0.40;0.40;;;;;;;;;;5079728;28;20174;-85
2023/05/31 01:31:00;;;;;;;0.40;0.40;;;;;;;;;;5079354;28;20206;-86
2023/05/31 01:33:27;;;;;;;0.40;0.40;;;;;;;;;;5079926;28;20694;-85
2023/05/31 01:35:53;;;;;;;0.40;0.40;;;;;;;;;;5079585;28;20206;-85
2023/05/31 01:38:19;;;;;;;0.30;0.30;;;;;;;;;;5078984;28;20231;-85
2023/05/31 01:40:45;;;;;;;0.40;0.40;;;;;;;;;;5079028;28;20209;-85
2023/05/31 01:43:11;;;;;;;0.30;0.30;;;;;;;;;;5079059;28;20604;-85
2023/05/31 01:45:38;;;;;;;0.50;0.50;;;;;;;;;;5079625;28;20182;-85
2023/05/31 01:48:05;;;;;;;0.40;0.40;;;;;;;;;;5079862;28;20186;-85
2023/05/31 01:50:33;;;;;;;0.47;0.47;;;;;;;;;;5079418;28;20256;-85
2023/05/31 01:52:59;;;;;;;0.30;0.30;;;;;;;;;;5079604;28;20175;-86
2023/05/31 01:55:25;;;;;;;0.50;0.50;;;;;;;;;;5080130;28;20214;-86
2023/05/31 01:57:52;;;;;;;0.37;0.37;;;;;;;;;;5079266;28;20181;-86
2023/05/31 02:00:18;;;;;;;0.40;0.40;;;;;;;;;;5080474;28;20830;-84
2023/05/31 02:02:45;;;;;;;0.40;0.40;;;;;;;;;;5083794;28;20182;-85
2023/05/31 02:05:12;;;;;;;0.40;0.40;;;;;;;;;;5081579;28;20671;-85
2023/05/31 02:07:38;;;;;;;0.33;0.33;;;;;;;;;;5077380;28;20175;-86
2023/05/31 02:10:05;;;;;;;0.40;0.40;;;;;;;;;;5076969;28;20194;-85
2023/05/31 02:12:31;;;;;;;0.40;0.40;;;;;;;;;;5076437;28;20182;-84
2023/05/31 02:14:57;;;;;;;0.50;0.50;;;;;;;;;;5077448;28;20181;-86
2023/05/31 02:17:23;;;;;;;0.43;0.43;;;;;;;;;;5075980;28;20206;-85
2023/05/31 02:19:51;;;;;;;0.40;0.40;;;;;;;;;;5075602;28;20217;-87
2023/05/31 02:22:17;;;;;;;0.40;0.40;;;;;;;;;;5077659;28;20179;-85
2023/05/31 02:24:43;;;;;;;0.50;0.50;;;;;;;;;;5075517;28;20187;-86
2023/05/31 02:27:10;;;;;;;0.37;0.37;;;;;;;;;;5075433;28;20198;-85
2023/05/31 02:29:36;;;;;;;0.40;0.40;;;;;;;;;;5076533;28;20677;-85
2023/05/31 02:32:02;;;;;;;0.43;0.43;;;;;;;;;;5077252;28;20186;-89
2023/05/31 02:34:28;;;;;;;0.50;0.50;;;;;;;;;;5077358;28;20197;-87
2023/05/31 02:36:55;;;;;;;0.50;0.50;;;;;;;;;;5095405;28;20224;-88
2023/05/31 02:39:21;;;;;;;0.50;0.50;;;;;;;;;;5096777;28;20230;-88
2023/05/31 02:44:15;;;;;;;0.33;0.33;;;;;;;;;;5055517;28;20231;-82
2023/05/31 02:46:41;;;;;;;0.40;0.40;;;;;;;;;;5057499;28;20240;-81
2023/05/31 02:49:07;;;;;;;0.40;0.40;;;;;;;;;;5057575;28;20186;-81
2023/05/31 02:51:33;;;;;;;0.30;0.30;;;;;;;;;;5076216;28;20617;-82
2023/05/31 02:53:59;;;;;;;0.30;0.30;;;;;;;;;;5076740;28;20182;-82
2023/05/31 02:56:26;;;;;;;0.40;0.40;;;;;;;;;;5076284;28;20580;-82
2023/05/31 02:58:52;;;;;;;0.40;0.40;;;;;;;;;;5075096;28;20201;-80
2023/05/31 03:01:18;;;;;;;0.37;0.37;;;;;;;;;;5075123;28;20202;-80
2023/05/31 03:03:44;;;;;;;0.40;0.40;;;;;;;;;;5074703;28;20194;-80
2023/05/31 03:06:16;;;;;;;0.40;0.40;;;;;;;;;;5075280;28;20183;-79
2023/05/31 03:08:42;;;;;;;0.40;0.40;;;;;;;;;;5064968;28;20185;-79
2023/05/31 03:11:09;;;;;;;0.50;0.50;;;;;;;;;;5073297;28;20556;-81
2023/05/31 03:13:35;;;;;;;0.50;0.50;;;;;;;;;;5075138;28;20186;-80
2023/05/31 03:16:01;;;;;;;0.50;0.50;;;;;;;;;;5073621;28;20217;-79
2023/05/31 03:18:27;;;;;;;0.40;0.40;;;;;;;;;;5073175;28;20206;-80
2023/05/31 03:20:53;;;;;;;0.40;0.40;;;;;;;;;;5073317;28;20202;-79
2023/05/31 03:23:19;;;;;;;0.40;0.40;;;;;;;;;;5072785;28;20453;-79
2023/05/31 03:25:45;;;;;;;0.40;0.40;;;;;;;;;;5073605;28;20283;-80
2023/05/31 03:28:11;;;;;;;0.50;0.50;;;;;;;;;;5074893;28;20637;-80
2023/05/31 03:30:37;;;;;;;0.40;0.40;;;;;;;;;;5073514;28;20234;-79
2023/05/31 03:33:03;;;;;;;0.40;0.40;;;;;;;;;;5074640;28;20182;-80
2023/05/31 03:35:29;;;;;;;0.50;0.50;;;;;;;;;;5073547;28;20292;-80
2023/05/31 03:37:55;;;;;;;0.50;0.50;;;;;;;;;;5073587;28;20186;-80
2023/05/31 03:40:21;;;;;;;0.47;0.47;;;;;;;;;;5074387;28;20642;-79
2023/05/31 03:42:47;;;;;;;0.30;0.30;;;;;;;;;;5072419;28;20630;-80
2023/05/31 03:45:13;;;;;;;0.40;0.40;;;;;;;;;;5073940;28;20186;-79
2023/05/31 03:47:39;;;;;;;0.53;0.53;;;;;;;;;;5073722;28;20178;-80
2023/05/31 03:50:05;;;;;;;0.50;0.50;;;;;;;;;;5072343;28;20247;-80
2023/05/31 03:52:32;;;;;;;0.47;0.47;;;;;;;;;;5073564;28;20179;-80
2023/05/31 03:54:58;;;;;;;0.53;0.53;;;;;;;;;;5073501;28;20261;-80
2023/05/31 03:57:24;;;;;;;0.40;0.40;;;;;;;;;;5073358;28;20214;-80
2023/05/31 03:59:50;;;;;;;0.33;0.33;;;;;;;;;;5073357;28;20680;-79
2023/05/31 04:02:16;;;;;;;0.40;0.40;;;;;;;;;;5073038;28;20263;-80
2023/05/31 04:04:42;;;;;;;0.40;0.40;;;;;;;;;;5080116;28;20173;-78
2023/05/31 04:07:08;;;;;;;0.50;0.50;;;;;;;;;;5094147;28;20166;-78
2023/05/31 04:09:34;;;;;;;0.40;0.40;;;;;;;;;;5093236;28;20198;-79
2023/05/31 04:12:02;;;;;;;0.50;0.50;;;;;;;;;;5091885;28;20204;-79
2023/05/31 04:14:28;;;;;;;0.50;0.50;;;;;;;;;;5075881;28;20178;-80
2023/05/31 04:16:54;;;;;;;0.53;0.53;;;;;;;;;;5075324;28;20287;-81
2023/05/31 04:19:20;;;;;;;0.50;0.50;;;;;;;;;;5076072;28;20271;-81
2023/05/31 04:21:46;;;;;;;0.47;0.47;;;;;;;;;;5076083;28;20183;-81
2023/05/31 04:24:12;;;;;;;0.60;0.60;;;;;;;;;;5075758;28;20186;-80
2023/05/31 04:26:38;;;;;;;0.40;0.40;;;;;;;;;;5076144;28;20174;-80
2023/05/31 04:29:04;;;;;;;0.50;0.50;;;;;;;;;;5074756;28;20297;-79
2023/05/31 04:31:31;;;;;;;0.40;0.40;;;;;;;;;;5075493;28;20252;-80
2023/05/31 04:33:59;;;;;;;0.30;0.30;;;;;;;;;;5075002;28;20267;-80
2023/05/31 04:36:26;;;;;;;0.40;0.40;;;;;;;;;;5078025;28;20283;-79
2023/05/31 04:38:54;;;;;;;0.33;0.33;;;;;;;;;;5081601;28;20178;-80
2023/05/31 04:41:24;;;;;;;0.30;0.30;;;;;;;;;;5079786;28;20568;-79
2023/05/31 04:43:52;;;;;;;0.40;0.40;;;;;;;;;;5079355;28;20214;-81
2023/05/31 04:46:19;;;;;;;0.40;0.40;;;;;;;;;;5078622;28;20209;-80
2023/05/31 04:48:47;;;;;;;0.40;0.40;;;;;;;;;;5077129;28;20182;-80
2023/05/31 04:51:13;;;;;;;0.40;0.40;;;;;;;;;;5076143;28;20209;-78
2023/05/31 04:53:39;;;;;;;0.40;0.40;;;;;;;;;;5077414;28;20171;-80
2023/05/31 04:56:07;;;;;;;0.40;0.40;;;;;;;;;;5076988;28;20217;-80
2023/05/31 04:58:34;;;;;;;0.30;0.30;;;;;;;;;;5077325;28;20204;-82
2023/05/31 05:00:59;;;;;;;0.40;0.40;;;;;;;;;;5076955;28;20204;-80
2023/05/31 05:03:26;;;;;;;0.33;0.33;;;;;;;;;;5077281;28;20698;-80
2023/05/31 05:05:52;;;;;;;0.50;0.50;;;;;;;;;;5077559;28;20191;-80
2023/05/31 05:08:18;;;;;;;0.40;0.40;;;;;;;;;;5077169;28;20181;-80
2023/05/31 05:10:44;;;;;;;0.47;0.47;;;;;;;;;;5076680;28;20186;-80
2023/05/31 05:13:10;;;;;;;0.40;0.40;;;;;;;;;;5078494;28;20170;-80
2023/05/31 05:15:36;;;;;;;0.50;0.50;;;;;;;;;;5098758;28;20186;-79
2023/05/31 05:18:02;;;;;;;0.30;0.30;;;;;;;;;;5099748;28;20201;-79
2023/05/31 05:20:28;;;;;;;0.40;0.40;;;;;;;;;;5098222;28;20174;-79
2023/05/31 05:22:54;;;;;;;0.40;0.40;;;;;;;;;;5097193;28;20747;-79
2023/05/31 05:25:22;;;;;;;0.40;0.40;;;;;;;;;;5099115;28;20175;-79
2023/05/31 05:27:48;;;;;;;0.50;0.50;;;;;;;;;;5086225;28;20175;-85
2023/05/31 05:30:15;;;;;;;0.30;0.30;;;;;;;;;;5079588;28;20205;-80
2023/05/31 05:32:41;;;;;;;0.30;0.30;;;;;;;;;;5079678;28;20182;-80
2023/05/31 05:35:08;;;;;;;0.30;0.30;;;;;;;;;;5078338;28;20560;-80
2023/05/31 05:37:34;;;;;;;0.30;0.30;;;;;;;;;;5079034;28;20230;-80
2023/05/31 05:40:00;;;;;;;0.30;0.30;;;;;;;;;;5078196;28;20256;-82
2023/05/31 05:42:27;;;;;;;0.50;0.50;;;;;;;;;;5078865;28;20260;-80
2023/05/31 05:44:54;;;;;;;0.30;0.30;;;;;;;;;;5079267;28;20261;-80
2023/05/31 05:47:19;;;;;;;0.30;0.30;;;;;;;;;;5077475;28;20186;-81
2023/05/31 05:49:48;;;;;;;0.40;0.40;;;;;;;;;;5076963;28;20259;-82
2023/05/31 05:52:14;;;;;;;0.40;0.40;;;;;;;;;;5077878;28;20285;-81
2023/05/31 05:54:40;;;;;;;0.47;0.47;;;;;;;;;;5076698;28;20206;-83
2023/05/31 05:57:06;;;;;;;0.40;0.40;;;;;;;;;;5076756;28;20248;-83
2023/05/31 05:59:32;;;;;;;0.30;0.30;;;;;;;;;;5075328;28;20228;-86
2023/05/31 06:01:58;;;;;;;0.40;0.40;;;;;;;;;;5075616;28;20186;-84
2023/05/31 06:04:24;;;;;;;0.40;0.40;;;;;;;;;;5074266;28;20175;-83
2023/05/31 06:06:50;;;;;;;0.30;0.30;;;;;;;;;;5073801;28;20182;-83
2023/05/31 06:09:17;;;;;;;0.57;0.57;;;;;;;;;;5073495;28;20228;-83
2023/05/31 06:11:42;;;;;;;0.30;0.30;;;;;;;;;;5073235;28;20174;-81
2023/05/31 06:14:09;;;;;;;0.50;0.50;;;;;;;;;;5074429;28;20352;-80
2023/05/31 06:16:35;;;;;;;0.50;0.50;;;;;;;;;;5074597;28;20210;-82
2023/05/31 06:19:02;;;;;;;0.40;0.40;;;;;;;;;;5074545;28;20201;-82
2023/05/31 06:21:37;;;;;;;0.40;0.40;;;;;;;;;;5069683;28;20206;-82
2023/05/31 06:24:03;;;;;;;0.57;0.57;;;;;;;;;;5075320;28;20180;-84
2023/05/31 06:26:29;;;;;;;0.40;0.40;;;;;;;;;;5074978;28;20202;-81
2023/05/31 06:28:57;;;;;;;0.30;0.30;;;;;;;;;;5074385;28;20178;-82
2023/05/31 06:31:23;;;;;;;0.50;0.50;;;;;;;;;;5075624;28;20716;-82
2023/05/31 06:33:49;;;;;;;0.50;0.50;;;;;;;;;;5075567;28;20170;-81
2023/05/31 06:36:15;;;;;;;0.50;0.50;;;;;;;;;;5075981;28;20263;-81
2023/05/31 06:38:41;;;;;;;0.40;0.40;;;;;;;;;;5076320;28;20302;-82
2023/05/31 06:41:07;;;;;;;0.50;0.50;;;;;;;;;;5074760;28;20680;-82
2023/05/31 06:43:33;;;;;;;0.30;0.30;;;;;;;;;;5074983;28;20194;-81
2023/05/31 06:45:59;;;;;;;0.33;0.33;;;;;;;;;;5074774;28;20185;-82
2023/05/31 06:48:25;;;;;;;0.40;0.40;;;;;;;;;;5075258;28;20201;-82
2023/05/31 06:50:51;;;;;;;0.30;0.30;;;;;;;;;;5074879;28;20226;-82
2023/05/31 06:53:17;;;;;;;0.30;0.30;;;;;;;;;;5078658;28;20187;-83
2023/05/31 06:55:43;;;;;;;0.43;0.43;;;;;;;;;;5078187;28;20194;-82
2023/05/31 06:58:09;;;;;;;0.40;0.40;;;;;;;;;;5092444;28;20261;-80
2023/05/31 07:00:35;;;;;;;0.30;0.30;;;;;;;;;;5082761;28;20197;-82
2023/05/31 07:03:01;;;;;;;0.40;0.40;;;;;;;;;;5083431;28;20171;-81
2023/05/31 07:05:29;;;;;;;0.30;0.30;;;;;;;;;;5075969;28;20570;-80
2023/05/31 07:07:55;;;;;;;0.30;0.30;;;;;;;;;;5094713;28;20188;-81
2023/05/31 07:10:21;;;;;;;0.40;0.40;;;;;;;;;;5096645;28;20202;-81
2023/05/31 07:12:47;;;;;;;0.30;0.30;;;;;;;;;;5096744;28;20518;-82
2023/05/31 07:15:13;;;;;;;0.30;0.30;;;;;;;;;;5096780;28;20235;-81
2023/05/31 07:17:39;;;;;;;0.30;0.30;;;;;;;;;;5097257;28;20224;-82
2023/05/31 07:20:06;;;;;;;0.30;0.30;;;;;;;;;;5097748;28;20284;-83
2023/05/31 07:22:32;;;;;;;0.30;0.30;;;;;;;;;;5097882;28;20260;-81
2023/05/31 07:24:58;;;;;;;0.40;0.40;;;;;;;;;;5096948;28;20255;-81
2023/05/31 07:27:24;;;;;;;0.30;0.30;;;;;;;;;;5089092;28;20201;-81
2023/05/31 07:29:50;;;;;;;0.30;0.30;;;;;;;;;;5077404;28;20595;-87
2023/05/31 07:32:16;;;;;;;0.40;0.40;;;;;;;;;;5078842;28;20202;-82
2023/05/31 07:34:42;;;;;;;0.30;0.30;;;;;;;;;;5090833;28;20208;-80
2023/05/31 07:37:08;;;;;;;0.30;0.30;;;;;;;;;;5095269;28;20218;-81
2023/05/31 07:39:34;;;;;;;0.30;0.30;;;;;;;;;;5077641;28;20232;-82
2023/05/31 07:42:01;;;;;;;0.30;0.30;;;;;;;;;;5097203;28;20201;-82
2023/05/31 07:44:27;;;;;;;0.30;0.30;;;;;;;;;;5097104;28;20179;-81
2023/05/31 07:46:53;;;;;;;0.30;0.30;;;;;;;;;;5095939;28;20417;-83
2023/05/31 07:49:19;;;;;;;0.30;0.30;;;;;;;;;;5075454;28;20178;-82
2023/05/31 07:51:45;;;;;;;0.30;0.30;;;;;;;;;;5075417;28;20599;-82
2023/05/31 07:54:11;;;;;;;0.30;0.30;;;;;;;;;;5076149;28;20258;-86
2023/05/31 07:56:37;;;;;;;0.30;0.30;;;;;;;;;;5075864;28;20629;-84
2023/05/31 07:59:03;;;;;;;0.30;0.30;;;;;;;;;;5075980;28;20181;-85
2023/05/31 08:01:29;;;;;;;0.40;0.40;;;;;;;;;;5076345;28;20202;-84
2023/05/31 08:03:55;;;;;;;0.40;0.40;;;;;;;;;;5075737;28;20265;-84
2023/05/31 08:06:22;;;;;;;0.30;0.30;;;;;;;;;;5076091;28;20273;-85
2023/05/31 08:08:48;;;;;;;0.30;0.30;;;;;;;;;;5076631;28;20247;-85
2023/05/31 08:11:14;;;;;;;0.30;0.30;;;;;;;;;;5076983;28;20198;-85
2023/05/31 08:13:40;;;;;;;0.30;0.30;;;;;;;;;;5081070;28;20170;-84
2023/05/31 08:16:06;;;;;;;0.20;0.20;;;;;;;;;;5081018;28;20218;-85
2023/05/31 08:18:32;;;;;;;0.30;0.30;;;;;;;;;;5080028;28;20205;-84
2023/05/31 08:20:58;;;;;;;0.20;0.20;;;;;;;;;;5080434;28;20199;-84
2023/05/31 08:23:24;;;;;;;0.30;0.30;;;;;;;;;;5084928;28;20209;-83
2023/05/31 08:25:51;;;;;;;0.30;0.30;;;;;;;;;;5085669;28;20179;-84
2023/05/31 08:28:17;;;;;;;0.30;0.30;;;;;;;;;;5087960;28;20257;-82
2023/05/31 08:30:43;;;;;;;0.40;0.40;;;;;;;;;;5082076;28;20222;-84
2023/05/31 08:33:09;;;;;;;0.30;0.30;;;;;;;;;;5077524;28;20523;-83
2023/05/31 08:35:35;;;;;;;0.20;0.20;;;;;;;;;;5089207;28;20181;-84
2023/05/31 08:38:01;;;;;;;0.30;0.30;;;;;;;;;;5099710;28;20193;-81
2023/05/31 08:40:27;;;;;;;0.30;0.30;;;;;;;;;;5100326;28;20183;-83
2023/05/31 08:42:56;;;;;;;0.30;0.30;;;;;;;;;;5100510;28;20200;-84
2023/05/31 08:45:22;;;;;;;0.30;0.30;;;;;;;;;;5091572;28;20174;-83
2023/05/31 08:48:12;;;;;;;0.30;0.30;;;;;;;;;;5077726;28;20175;-82
2023/05/31 08:50:38;;;;;;;0.30;0.30;;;;;;;;;;5069446;28;20206;-83
2023/05/31 08:53:06;;;;;;;0.30;0.30;;;;;;;;;;5078999;28;20228;-83
2023/05/31 08:55:32;;;;;;;0.37;0.37;;;;;;;;;;5077734;28;20710;-84
2023/05/31 08:57:58;;;;;;;0.30;0.30;;;;;;;;;;5078673;28;20179;-83
2023/05/31 09:00:25;;;;;;;0.23;0.23;;;;;;;;;;5078009;28;20195;-83
2023/05/31 09:02:51;;;;;;;0.37;0.37;;;;;;;;;;5075442;28;20182;-82
2023/05/31 09:05:18;;;;;;;0.40;0.40;;;;;;;;;;5077536;28;20275;-82
2023/05/31 09:07:44;;;;;;;0.33;0.33;;;;;;;;;;5074563;28;20170;-82
2023/05/31 09:10:11;;;;;;;0.40;0.40;;;;;;;;;;5074664;28;20637;-83
2023/05/31 09:12:37;;;;;;;0.30;0.30;;;;;;;;;;5076751;28;20177;-84
2023/05/31 09:15:03;;;;;;;0.30;0.30;;;;;;;;;;5080425;28;20664;-82
2023/05/31 09:17:29;;;;;;;0.37;0.37;;;;;;;;;;5089932;28;20259;-81
2023/05/31 09:19:56;;;;;;;0.40;0.40;;;;;;;;;;5079025;28;20209;-82
2023/05/31 09:22:22;;;;;;;0.30;0.30;;;;;;;;;;5091726;28;20175;-82
2023/05/31 09:24:56;;;;;;;0.20;0.20;;;;;;;;;;5083872;28;20174;-83
2023/05/31 09:27:21;;;;;;;0.30;0.30;;;;;;;;;;5083710;28;20171;-82
2023/05/31 09:29:54;;;;;;;0.40;0.40;;;;;;;;;;5090642;28;20208;-82
2023/05/31 09:32:20;;;;;;;0.40;0.40;;;;;;;;;;5063353;28;20205;-82
2023/05/31 09:34:46;;;;;;;0.40;0.40;;;;;;;;;;5087865;28;20183;-81
2023/05/31 09:37:32;;;;;;;0.30;0.30;;;;;;;;;;5086737;28;20271;-81
2023/05/31 09:39:58;;;;;;;0.30;0.30;;;;;;;;;;5076260;28;20206;-80
2023/05/31 09:42:26;;;;;;;0.40;0.40;;;;;;;;;;5075169;28;20556;-82
2023/05/31 09:44:53;;;;;;;0.30;0.30;;;;;;;;;;5075291;28;20171;-80
2023/05/31 09:47:25;;;;;;;0.37;0.37;;;;;;;;;;5087088;28;20178;-80
2023/05/31 09:49:53;;;;;;;0.37;0.37;;;;;;;;;;5077070;28;20198;-82
2023/05/31 09:52:22;;;;;;;0.30;0.30;;;;;;;;;;5044218;28;20697;-81
2023/05/31 09:54:48;;;;;;;0.30;0.30;;;;;;;;;;5086455;28;20175;-81
2023/05/31 09:57:29;;;;;;;0.30;0.30;;;;;;;;;;5085450;28;20617;-82
2023/05/31 10:00:06;;;;;;;0.40;0.40;;;;;;;;;;5077199;28;20191;-82
2023/05/31 10:02:32;;;;;;;0.30;0.30;;;;;;;;;;5089083;28;20655;-81
2023/05/31 10:04:58;;;;;;;0.30;0.30;;;;;;;;;;5083782;28;20188;-81
2023/05/31 10:07:24;;;;;;;0.37;0.37;;;;;;;;;;5082103;28;20209;-82
2023/05/31 10:09:50;;;;;;;0.40;0.40;;;;;;;;;;5094460;28;20412;-80
2023/05/31 10:12:18;;;;;;;0.30;0.30;;;;;;;;;;5085447;28;20200;-80
2023/05/31 10:14:48;;;;;;;0.40;0.40;;;;;;;;;;5110374;28;20170;-79
2023/05/31 10:17:17;;;;;;;0.30;0.30;;;;;;;;;;5109840;28;20209;-80
2023/05/31 10:19:48;;;;;;;0.30;0.30;;;;;;;;;;5094250;28;20195;-83
2023/05/31 10:22:15;;;;;;;0.20;0.20;;;;;;;;;;5098314;28;20182;-83
2023/05/31 10:24:49;;;;;;;0.30;0.30;;;;;;;;;;5083520;28;20175;-82
2023/05/31 10:27:22;;;;;;;0.43;0.43;;;;;;;;;;5077282;28;20193;-81
2023/05/31 10:29:56;;;;;;;0.40;0.40;;;;;;;;;;5077741;28;20194;-80
2023/05/31 10:32:27;;;;;;;0.40;0.40;;;;;;;;;;5081119;28;20181;-81
2023/05/31 10:34:53;;;;;;;0.40;0.40;;;;;;;;;;5093111;28;20264;-81
2023/05/31 10:37:21;;;;;;;0.37;0.37;;;;;;;;;;5083243;28;20675;-80
2023/05/31 10:39:52;;;;;;;0.30;0.30;;;;;;;;;;5066339;28;20189;-80
2023/05/31 10:42:21;;;;;;;0.43;0.43;;;;;;;;;;5088547;28;20194;-81
2023/05/31 10:44:51;;;;;;;0.37;0.37;;;;;;;;;;5076525;28;20175;-82
2023/05/31 10:47:20;;;;;;;0.30;0.30;;;;;;;;;;5077290;28;20205;-82
2023/05/31 10:49:47;;;;;;;0.30;0.30;;;;;;;;;;5076365;28;20278;-83
2023/05/31 10:52:16;;;;;;;0.30;0.30;;;;;;;;;;5076574;28;20795;-82
2023/05/31 10:54:42;;;;;;;0.30;0.30;;;;;;;;;;5073982;28;20490;-81
2023/05/31 10:57:10;;;;;;;0.30;0.30;;;;;;;;;;5075096;28;20239;-82
2023/05/31 10:59:41;;;;;;;0.30;0.30;;;;;;;;;;5074002;28;20197;-82
2023/05/31 11:02:07;;;;;;;0.30;0.30;;;;;;;;;;5073986;28;20185;-82
2023/05/31 11:04:33;;;;;;;0.20;0.20;;;;;;;;;;5074856;28;20163;-82
2023/05/31 11:07:14;;;;;;;0.30;0.30;;;;;;;;;;5073229;28;20201;-82
2023/05/31 11:09:40;;;;;;;0.20;0.20;;;;;;;;;;5072833;28;20198;-82
2023/05/31 11:12:06;;;;;;;0.37;0.37;;;;;;;;;;5073805;28;20656;-82
2023/05/31 11:14:32;;;;;;;0.40;0.40;;;;;;;;;;5074784;28;20675;-83
2023/05/31 11:17:06;;;;;;;0.33;0.33;;;;;;;;;;5074603;28;20221;-83
2023/05/31 11:19:36;;;;;;;0.30;0.30;;;;;;;;;;5074239;28;20178;-81
2023/05/31 11:22:09;;;;;;;0.40;0.40;;;;;;;;;;5074725;28;20178;-82
2023/05/31 11:24:37;;;;;;;0.40;0.40;;;;;;;;;;5073799;28;20166;-83
2023/05/31 11:27:05;;;;;;;0.50;0.50;;;;;;;;;;5081232;28;20580;-80
2023/05/31 11:29:50;;;;;;;0.40;0.40;;;;;;;;;;5064828;28;20178;-84
2023/05/31 11:32:17;;;;;;;0.40;0.40;;;;;;;;;;5079225;28;20175;-83
2023/05/31 11:34:49;;;;;;;0.40;0.40;;;;;;;;;;5079150;28;20178;-81
2023/05/31 11:37:15;;;;;;;0.60;0.60;;;;;;;;;;5080796;28;20684;-83
2023/05/31 11:39:45;;;;;;;0.30;0.30;;;;;;;;;;5080104;28;20195;-84
2023/05/31 11:42:11;;;;;;;0.40;0.40;;;;;;;;;;5080432;28;20187;-84
2023/05/31 11:44:42;;;;;;;0.40;0.40;;;;;;;;;;5080100;28;20181;-84
2023/05/31 11:47:10;;;;;;;0.43;0.43;;;;;;;;;;5081167;28;20254;-84
2023/05/31 11:49:36;;;;;;;0.33;0.33;;;;;;;;;;5078230;28;20344;-83
2023/05/31 11:52:03;;;;;;;0.40;0.40;;;;;;;;;;5092712;28;20171;-80
2023/05/31 11:54:29;;;;;;;0.33;0.33;;;;;;;;;;5097666;28;20182;-83
2023/05/31 11:56:57;;;;;;;0.20;0.20;;;;;;;;;;5096698;28;20250;-85
2023/05/31 11:59:23;;;;;;;0.40;0.40;;;;;;;;;;5095903;28;20166;-83
2023/05/31 12:01:49;;;;;;;0.30;0.30;;;;;;;;;;5081085;28;20171;-84
2023/05/31 12:04:15;;;;;;;0.40;0.40;;;;;;;;;;5075975;28;20182;-85
2023/05/31 12:06:41;;;;;;;0.40;0.40;;;;;;;;;;5075132;28;20182;-83
2023/05/31 12:09:11;;;;;;;0.30;0.30;;;;;;;;;;5075294;28;20174;-83
2023/05/31 12:11:37;;;;;;;0.40;0.40;;;;;;;;;;5073305;28;20202;-83
2023/05/31 12:14:02;;;;;;;0.33;0.33;;;;;;;;;;5074488;28;20178;-83
2023/05/31 12:16:29;;;;;;;0.40;0.40;;;;;;;;;;5076442;28;20213;-83
2023/05/31 12:18:55;;;;;;;0.30;0.30;;;;;;;;;;5078075;28;20238;-85
2023/05/31 12:21:21;;;;;;;0.30;0.30;;;;;;;;;;5079525;28;20206;-82
2023/05/31 12:23:54;;;;;;;0.40;0.40;;;;;;;;;;5079954;28;20175;-85
2023/05/31 12:26:21;;;;;;;0.40;0.40;;;;;;;;;;5079957;28;20629;-85
2023/05/31 12:28:47;;;;;;;0.40;0.40;;;;;;;;;;5079326;28;20175;-84
2023/05/31 12:31:20;;;;;;;0.30;0.30;;;;;;;;;;5077174;28;20194;-85
2023/05/31 12:34:07;;;;;;;0.53;0.53;;;;;;;;;;5077561;28;20241;-83
2023/05/31 12:36:39;;;;;;;0.53;0.53;;;;;;;;;;5074912;28;20230;-86
2023/05/31 12:39:09;;;;;;;0.37;0.37;;;;;;;;;;5074414;28;20257;-84
2023/05/31 12:41:35;;;;;;;0.50;0.50;;;;;;;;;;5072370;28;20328;-86
2023/05/31 12:44:01;;;;;;;0.43;0.43;;;;;;;;;;5072986;28;20198;-86
2023/05/31 12:46:27;;;;;;;0.40;0.40;;;;;;;;;;5073296;28;20175;-85
2023/05/31 12:48:53;;;;;;;0.40;0.40;;;;;;;;;;5072392;28;20185;-85
2023/05/31 12:51:23;;;;;;;0.50;0.50;;;;;;;;;;5071960;28;20284;-85
2023/05/31 12:53:49;;;;;;;0.40;0.40;;;;;;;;;;5074789;28;20551;-86
2023/05/31 12:56:15;;;;;;;0.40;0.40;;;;;;;;;;5074884;28;20899;-86
2023/05/31 12:58:42;;;;;;;0.33;0.33;;;;;;;;;;5090541;28;20280;-85
2023/05/31 13:01:08;;;;;;;0.30;0.30;;;;;;;;;;5081284;28;20191;-85
2023/05/31 13:03:34;;;;;;;0.40;0.40;;;;;;;;;;5092988;28;20225;-84
2023/05/31 13:06:00;;;;;;;0.40;0.40;;;;;;;;;;5100343;28;20174;-84
2023/05/31 13:08:26;;;;;;;0.40;0.40;;;;;;;;;;5120420;28;20173;-87
2023/05/31 13:10:53;;;;;;;0.50;0.50;;;;;;;;;;5108622;28;20847;-84
2023/05/31 13:13:19;;;;;;;0.40;0.40;;;;;;;;;;5101589;28;20178;-85
2023/05/31 13:15:46;;;;;;;0.30;0.30;;;;;;;;;;5101858;28;20177;-84
2023/05/31 13:18:12;;;;;;;0.40;0.40;;;;;;;;;;5099478;28;20178;-84
2023/05/31 13:20:38;;;;;;;0.30;0.30;;;;;;;;;;5086026;28;20217;-85
2023/05/31 13:23:08;;;;;;;0.50;0.50;;;;;;;;;;5091462;28;20185;-84
2023/05/31 13:25:34;;;;;;;0.30;0.30;;;;;;;;;;5080704;28;20174;-84
2023/05/31 13:27:59;;;;;;;0.40;0.40;;;;;;;;;;5086234;28;20198;-84
2023/05/31 13:30:26;;;;;;;0.50;0.50;;;;;;;;;;5078739;28;20198;-84
2023/05/31 13:32:53;;;;;;;0.40;0.40;;;;;;;;;;5086198;28;20174;-84
2023/05/31 13:35:19;;;;;;;0.30;0.30;;;;;;;;;;5089308;28;20193;-83
2023/05/31 13:37:45;;;;;;;0.23;0.23;;;;;;;;;;5094295;28;20638;-83
2023/05/31 13:40:11;;;;;;;0.40;0.40;;;;;;;;;;5081465;28;20198;-86
2023/05/31 13:42:37;;;;;;;0.40;0.40;;;;;;;;;;5079234;28;20336;-84
2023/05/31 13:45:03;;;;;;;0.30;0.30;;;;;;;;;;5079137;28;20199;-85
2023/05/31 13:47:29;;;;;;;0.40;0.40;;;;;;;;;;5079622;28;20244;-85
2023/05/31 13:49:55;;;;;;;0.40;0.40;;;;;;;;;;5064584;28;20229;-84
2023/05/31 13:52:22;;;;;;;0.50;0.50;;;;;;;;;;5081813;28;20202;-85
2023/05/31 13:54:48;;;;;;;0.33;0.33;;;;;;;;;;5087033;28;20212;-84
2023/05/31 13:57:14;;;;;;;0.27;0.27;;;;;;;;;;5090883;28;20692;-85
2023/05/31 13:59:41;;;;;;;0.40;0.40;;;;;;;;;;5080959;28;20213;-84
2023/05/31 14:02:07;;;;;;;0.30;0.30;;;;;;;;;;5100895;28;20245;-85
2023/05/31 14:04:33;;;;;;;0.40;0.40;;;;;;;;;;5085602;28;20174;-85
2023/05/31 14:06:59;;;;;;;0.30;0.30;;;;;;;;;;5100573;28;20204;-84
2023/05/31 14:09:26;;;;;;;0.30;0.30;;;;;;;;;;5088249;28;20175;-83
2023/05/31 14:11:52;;;;;;;0.30;0.30;;;;;;;;;;5099245;28;20201;-85
2023/05/31 14:14:18;;;;;;;0.40;0.40;;;;;;;;;;5084039;28;20696;-84
2023/05/31 14:16:44;;;;;;;0.37;0.37;;;;;;;;;;5100832;28;20190;-83
2023/05/31 14:19:10;;;;;;;0.30;0.30;;;;;;;;;;5117900;28;20169;-83
2023/05/31 14:21:36;;;;;;;0.30;0.30;;;;;;;;;;5103981;28;20411;-80
2023/05/31 14:24:03;;;;;;;0.40;0.40;;;;;;;;;;5115295;28;20290;-82
2023/05/31 14:26:29;;;;;;;0.30;0.30;;;;;;;;;;5112408;28;20171;-82
2023/05/31 14:28:55;;;;;;;0.40;0.40;;;;;;;;;;5078543;28;20201;-83
2023/05/31 14:31:21;;;;;;;0.40;0.40;;;;;;;;;;5077093;28;20202;-83
2023/05/31 14:33:47;;;;;;;0.33;0.33;;;;;;;;;;5091073;28;20201;-83
2023/05/31 14:36:13;;;;;;;0.40;0.40;;;;;;;;;;5093906;28;20241;-83
2023/05/31 14:38:39;;;;;;;0.30;0.30;;;;;;;;;;5077775;28;20174;-84
2023/05/31 14:41:05;;;;;;;0.30;0.30;;;;;;;;;;5086447;28;20189;-83
2023/05/31 14:43:31;;;;;;;0.30;0.30;;;;;;;;;;5101508;22;20201;-85
2023/05/31 14:45:57;;;;;;;0.30;0.30;;;;;;;;;;5114924;28;20215;-85